createdAt,value
2018-11-29T00:00:52.233Z,27.77
2018-11-29T00:03:21.576Z,26.03
2018-11-29T00:05:49.764Z,26.93
2018-11-29T00:08:18.134Z,29.70
2018-11-29T00:10:46.570Z,25.60
2018-11-29T00:13:14.779Z,27.80
2018-11-29T00:15:43.597Z,28.13
2018-11-29T00:18:11.894Z,33.10
2018-11-29T00:20:40.129Z,30.93
2018-11-29T00:23:09.360Z,24.83
2018-11-29T00:25:37.652Z,27.10
2018-11-29T00:28:06.433Z,30.50
2018-11-29T00:30:34.712Z,31.90
2018-11-29T00:33:02.905Z,30.97
2018-11-29T00:35:31.211Z,27.20
2018-11-29T00:37:59.453Z,34.17
2018-11-29T00:40:27.717Z,27.67
2018-11-29T00:42:55.952Z,30.00
2018-11-29T00:45:24.583Z,32.43
2018-11-29T00:47:53.006Z,26.67
2018-11-29T00:50:21.520Z,30.50
2018-11-29T00:52:50.482Z,33.27
2018-11-29T00:55:20.334Z,35.27
2018-11-29T00:57:48.753Z,32.63
2018-11-29T01:00:20.117Z,31.93
2018-11-29T01:02:49.043Z,31.53
2018-11-29T01:05:17.236Z,31.53
2018-11-29T01:07:45.460Z,26.23
2018-11-29T01:10:17.274Z,30.70
2018-11-29T01:12:45.878Z,32.27
2018-11-29T01:15:15.057Z,30.90
2018-11-29T01:17:44.592Z,30.63
2018-11-29T01:20:14.587Z,29.03
2018-11-29T01:22:42.977Z,30.03
2018-11-29T01:25:12.027Z,31.80
2018-11-29T01:27:40.977Z,27.93
2018-11-29T01:30:11.290Z,28.13
2018-11-29T01:32:39.524Z,27.60
2018-11-29T01:35:09.687Z,29.90
2018-11-29T01:37:38.142Z,29.13
2018-11-29T01:40:08.519Z,28.97
2018-11-29T01:42:36.720Z,33.13
2018-11-29T01:45:05.623Z,30.83
2018-11-29T01:47:33.872Z,30.67
2018-11-29T01:50:02.068Z,26.70
2018-11-29T01:52:30.461Z,31.60
2018-11-29T01:54:58.710Z,30.07
2018-11-29T01:57:26.896Z,33.87
2018-11-29T01:59:55.331Z,29.67
2018-11-29T02:02:23.641Z,33.17
2018-11-29T02:04:51.873Z,35.17
2018-11-29T02:07:20.061Z,33.07
2018-11-29T02:09:48.353Z,34.27
2018-11-29T02:12:16.578Z,38.03
2018-11-29T02:14:44.870Z,31.37
2018-11-29T02:17:13.141Z,35.07
2018-11-29T02:19:41.497Z,32.57
2018-11-29T02:22:09.726Z,36.77
2018-11-29T02:24:37.956Z,36.40
2018-11-29T02:27:06.205Z,38.00
2018-11-29T02:29:34.540Z,37.60
2018-11-29T02:32:02.991Z,35.80
2018-11-29T02:34:31.236Z,38.43
2018-11-29T02:36:59.482Z,38.43
2018-11-29T02:39:27.758Z,37.10
2018-11-29T02:41:56.007Z,33.77
2018-11-29T02:44:24.252Z,35.87
2018-11-29T02:46:52.488Z,39.60
2018-11-29T02:49:20.795Z,40.00
2018-11-29T02:51:49.070Z,45.13
2018-11-29T02:54:17.361Z,37.60
2018-11-29T02:56:45.747Z,41.33
2018-11-29T02:59:14.015Z,39.13
2018-11-29T03:01:42.743Z,42.97
2018-11-29T03:04:10.963Z,40.67
2018-11-29T03:06:39.190Z,38.13
2018-11-29T03:09:07.447Z,40.60
2018-11-29T03:11:35.700Z,45.00
2018-11-29T03:14:03.918Z,43.87
2018-11-29T03:16:32.204Z,50.73
2018-11-29T03:19:00.481Z,41.50
2018-11-29T03:21:28.728Z,37.37
2018-11-29T03:23:56.973Z,41.23
2018-11-29T03:26:25.166Z,44.77
2018-11-29T03:28:53.538Z,42.67
2018-11-29T03:31:21.774Z,42.47
2018-11-29T03:33:50.030Z,40.90
2018-11-29T03:36:18.261Z,48.73
2018-11-29T03:38:46.487Z,45.67
2018-11-29T03:41:14.891Z,43.20
2018-11-29T03:43:43.192Z,45.63
2018-11-29T03:46:11.425Z,46.27
2018-11-29T03:48:39.656Z,43.57
2018-11-29T03:51:07.944Z,48.43
2018-11-29T03:53:36.189Z,38.93
2018-11-29T03:56:04.806Z,43.30
2018-11-29T03:58:33.076Z,39.67
2018-11-29T04:01:01.268Z,37.23
2018-11-29T04:03:29.847Z,43.13
2018-11-29T04:05:58.172Z,41.50
2018-11-29T04:08:26.392Z,45.40
2018-11-29T04:10:54.659Z,43.90
2018-11-29T04:13:22.857Z,48.47
2018-11-29T04:15:51.122Z,41.27
2018-11-29T04:18:19.367Z,45.83
2018-11-29T04:20:47.647Z,41.70
2018-11-29T04:23:15.951Z,41.93
2018-11-29T04:25:44.220Z,44.73
2018-11-29T04:28:12.479Z,47.03
2018-11-29T04:30:40.727Z,44.40
2018-11-29T04:33:09.055Z,46.53
2018-11-29T04:35:37.325Z,45.27
2018-11-29T04:38:05.756Z,42.90
2018-11-29T04:40:34.044Z,43.63
2018-11-29T04:43:02.286Z,43.43
2018-11-29T04:46:41.946Z,42.63
2018-11-29T04:49:10.289Z,40.00
2018-11-29T04:51:38.637Z,41.80
2018-11-29T04:54:07.657Z,41.67
2018-11-29T04:56:35.857Z,44.57
2018-11-29T04:59:04.097Z,39.47
2018-11-29T05:01:32.343Z,39.27
2018-11-29T05:04:00.677Z,47.33
2018-11-29T05:06:28.987Z,47.23
2018-11-29T05:08:58.589Z,40.47
2018-11-29T05:11:26.877Z,46.93
2018-11-29T05:13:55.666Z,47.83
2018-11-29T05:16:24.042Z,46.77
2018-11-29T05:18:52.256Z,42.60
2018-11-29T05:21:20.518Z,47.60
2018-11-29T05:23:48.773Z,39.03
2018-11-29T05:26:17.006Z,43.00
2018-11-29T05:28:45.241Z,52.87
2018-11-29T05:31:13.460Z,47.70
2018-11-29T05:33:41.761Z,44.60
2018-11-29T05:36:10.292Z,51.80
2018-11-29T05:38:38.521Z,48.83
2018-11-29T05:41:06.954Z,43.33
2018-11-29T05:43:35.289Z,40.00
2018-11-29T05:46:03.510Z,47.20
2018-11-29T05:48:31.721Z,48.33
2018-11-29T05:50:59.984Z,47.67
2018-11-29T05:53:28.341Z,49.77
2018-11-29T05:55:56.610Z,43.80
2018-11-29T05:58:24.829Z,45.90
2018-11-29T06:00:53.653Z,43.70
2018-11-29T06:03:21.829Z,42.97
2018-11-29T06:05:50.202Z,51.03
2018-11-29T06:08:18.790Z,48.60
2018-11-29T06:10:47.084Z,51.93
2018-11-29T06:13:15.385Z,53.67
2018-11-29T06:15:43.688Z,45.67
2018-11-29T06:18:11.899Z,47.13
2018-11-29T06:20:40.200Z,50.23
2018-11-29T06:23:08.485Z,43.50
2018-11-29T06:25:36.709Z,47.77
2018-11-29T06:28:04.983Z,42.27
2018-11-29T06:30:33.271Z,45.30
2018-11-29T06:33:01.540Z,49.13
2018-11-29T06:35:29.783Z,43.27
2018-11-29T06:37:58.025Z,39.43
2018-11-29T06:40:26.240Z,49.07
2018-11-29T06:42:54.564Z,44.63
2018-11-29T06:45:22.905Z,54.10
2018-11-29T06:47:51.923Z,42.10
2018-11-29T06:50:20.373Z,51.00
2018-11-29T06:52:50.015Z,50.80
2018-11-29T06:55:21.277Z,44.67
2018-11-29T06:57:49.552Z,46.70
2018-11-29T07:00:22.616Z,49.07
2018-11-29T07:02:50.878Z,49.57
2018-11-29T07:05:19.076Z,44.77
2018-11-29T07:07:47.571Z,46.63
2018-11-29T07:10:16.540Z,45.50
2018-11-29T07:12:44.881Z,41.83
2018-11-29T07:15:13.633Z,45.57
2018-11-29T07:17:42.653Z,45.13
2018-11-29T07:20:13.297Z,43.60
2018-11-29T07:22:41.570Z,51.80
2018-11-29T07:25:10.277Z,47.63
2018-11-29T07:27:39.269Z,45.30
2018-11-29T07:30:14.733Z,47.13
2018-11-29T07:32:43.006Z,42.73
2018-11-29T07:35:12.304Z,50.63
2018-11-29T07:37:40.914Z,46.13
2018-11-29T07:40:14.130Z,41.13
2018-11-29T07:42:42.370Z,47.40
2018-11-29T07:45:14.029Z,45.10
2018-11-29T07:47:42.574Z,49.80
2018-11-29T07:50:12.129Z,39.13
2018-11-29T07:52:40.976Z,41.83
2018-11-29T07:55:10.617Z,48.47
2018-11-29T07:57:39.376Z,44.27
2018-11-29T08:00:09.630Z,40.20
2018-11-29T08:02:37.892Z,40.17
2018-11-29T08:05:08.658Z,43.73
2018-11-29T08:07:37.068Z,43.30
2018-11-29T08:10:10.286Z,44.57
2018-11-29T08:12:38.547Z,45.40
2018-11-29T08:15:09.235Z,40.10
2018-11-29T08:17:37.494Z,42.27
2018-11-29T08:20:13.256Z,47.43
2018-11-29T08:22:41.748Z,42.10
2018-11-29T08:25:10.649Z,59.37
2018-11-29T08:27:39.064Z,47.70
2018-11-29T08:30:09.890Z,46.70
2018-11-29T08:32:38.740Z,40.50
2018-11-29T08:35:09.478Z,46.03
2018-11-29T08:37:38.317Z,47.40
2018-11-29T08:40:11.338Z,58.10
2018-11-29T08:42:39.536Z,55.57
2018-11-29T08:45:09.831Z,53.20
2018-11-29T08:47:38.200Z,42.60
2018-11-29T08:50:08.671Z,51.90
2018-11-29T08:52:37.288Z,50.57
2018-11-29T08:55:10.125Z,42.50
2018-11-29T08:57:38.394Z,48.80
2018-11-29T09:00:12.145Z,44.37
2018-11-29T09:02:40.579Z,51.10
2018-11-29T09:05:09.845Z,43.83
2018-11-29T09:07:38.411Z,35.33
2018-11-29T09:10:08.747Z,46.03
2018-11-29T09:12:37.053Z,49.60
2018-11-29T09:15:07.295Z,42.57
2018-11-29T09:17:35.656Z,39.63
2018-11-29T09:20:04.218Z,53.07
2018-11-29T09:22:32.420Z,48.10
2018-11-29T09:25:00.647Z,44.57
2018-11-29T09:27:28.936Z,47.63
2018-11-29T09:29:57.244Z,47.47
2018-11-29T09:32:25.513Z,51.23
2018-11-29T09:34:53.796Z,44.37
2018-11-29T09:37:23.092Z,48.10
2018-11-29T09:39:51.356Z,43.43
2018-11-29T09:42:20.720Z,40.63
2018-11-29T09:44:48.937Z,42.73
2018-11-29T09:47:17.319Z,45.30
2018-11-29T09:49:45.783Z,47.67
2018-11-29T09:52:14.042Z,43.90
2018-11-29T09:54:42.272Z,44.13
2018-11-29T09:57:10.613Z,41.67
2018-11-29T09:59:38.789Z,45.27
2018-11-29T10:02:07.257Z,40.30
2018-11-29T10:04:35.493Z,43.27
2018-11-29T10:07:03.751Z,45.20
2018-11-29T10:09:32.098Z,46.80
2018-11-29T10:12:00.481Z,35.80
2018-11-29T10:14:28.698Z,50.20
2018-11-29T10:16:56.968Z,45.27
2018-11-29T10:19:25.174Z,41.47
2018-11-29T10:21:53.436Z,46.40
2018-11-29T10:24:21.751Z,45.00
2018-11-29T10:26:50.400Z,37.50
2018-11-29T10:29:18.685Z,42.67
2018-11-29T10:31:47.115Z,43.93
2018-11-29T10:34:16.537Z,47.80
2018-11-29T10:36:44.967Z,44.23
2018-11-29T10:39:13.332Z,41.47
2018-11-29T10:41:41.605Z,43.93
2018-11-29T10:44:09.875Z,43.43
2018-11-29T10:46:39.004Z,39.50
2018-11-29T10:49:07.514Z,44.90
2018-11-29T10:51:35.845Z,43.93
2018-11-29T10:54:04.229Z,39.53
2018-11-29T10:56:32.559Z,42.63
2018-11-29T10:59:00.877Z,45.40
2018-11-29T11:01:31.351Z,44.37
2018-11-29T11:04:00.565Z,41.77
2018-11-29T11:06:28.808Z,39.47
2018-11-29T11:08:57.031Z,40.07
2018-11-29T11:11:25.378Z,45.73
2018-11-29T11:13:54.039Z,41.33
2018-11-29T11:16:22.386Z,38.10
2018-11-29T11:18:50.710Z,45.27
2018-11-29T11:21:18.953Z,42.20
2018-11-29T11:23:47.157Z,34.87
2018-11-29T11:26:15.544Z,36.83
2018-11-29T11:28:43.836Z,40.77
2018-11-29T11:31:12.139Z,35.67
2018-11-29T11:33:40.353Z,38.07
2018-11-29T11:36:08.655Z,37.17
2018-11-29T11:38:36.906Z,37.17
2018-11-29T11:41:05.344Z,38.57
2018-11-29T11:43:33.603Z,39.27
2018-11-29T11:46:02.290Z,41.07
2018-11-29T11:48:30.576Z,36.77
2018-11-29T11:50:58.833Z,35.00
2018-11-29T11:53:27.125Z,42.00
2018-11-29T11:55:55.410Z,40.53
2018-11-29T11:58:23.837Z,43.13
2018-11-29T12:00:52.190Z,39.87
2018-11-29T12:03:20.501Z,42.50
2018-11-29T12:05:48.877Z,43.07
2018-11-29T12:08:17.337Z,38.20
2018-11-29T12:10:45.623Z,41.77
2018-11-29T12:13:13.877Z,47.37
2018-11-29T12:15:42.100Z,42.63
2018-11-29T12:18:11.594Z,46.17
2018-11-29T12:20:39.961Z,43.97
2018-11-29T12:23:08.799Z,38.70
2018-11-29T12:25:37.036Z,43.13
2018-11-29T12:28:05.733Z,40.57
2018-11-29T12:30:36.115Z,40.07
2018-11-29T12:33:06.049Z,41.27
2018-11-29T12:35:35.356Z,34.60
2018-11-29T12:38:04.456Z,36.47
2018-11-29T12:40:32.836Z,38.27
2018-11-29T12:43:01.090Z,47.37
2018-11-29T12:45:29.382Z,39.97
2018-11-29T12:47:57.720Z,40.20
2018-11-29T12:50:26.678Z,36.80
2018-11-29T12:52:55.139Z,39.00
2018-11-29T12:55:24.585Z,37.63
2018-11-29T12:58:04.458Z,44.13
2018-11-29T13:00:22.198Z,39.77
2018-11-29T13:02:56.475Z,33.70
2018-11-29T13:05:25.163Z,36.97
2018-11-29T13:07:53.488Z,40.90
2018-11-29T13:10:23.778Z,38.80
2018-11-29T13:12:51.809Z,40.20
2018-11-29T13:15:23.642Z,39.60
2018-11-29T13:17:51.919Z,41.90
2018-11-29T13:20:20.163Z,41.00
2018-11-29T13:22:48.352Z,45.70
2018-11-29T13:25:19.314Z,37.97
2018-11-29T13:27:47.593Z,35.90
2018-11-29T13:30:17.888Z,43.37
2018-11-29T13:32:46.444Z,41.00
2018-11-29T13:35:29.121Z,43.60
2018-11-29T13:37:59.832Z,36.63
2018-11-29T13:40:28.360Z,40.57
2018-11-29T13:42:56.621Z,42.33
2018-11-29T13:45:24.969Z,39.37
2018-11-29T13:47:53.218Z,40.67
2018-11-29T13:50:21.600Z,36.83
2018-11-29T13:52:49.837Z,39.23
2018-11-29T13:55:18.747Z,40.30
2018-11-29T13:57:48.984Z,41.13
2018-11-29T14:00:23.205Z,37.93
2018-11-29T14:02:55.180Z,42.90
2018-11-29T14:05:24.442Z,43.73
2018-11-29T14:07:52.778Z,40.03
2018-11-29T14:10:22.201Z,40.20
2018-11-29T14:12:51.892Z,40.50
2018-11-29T14:15:21.802Z,39.60
2018-11-29T14:17:50.044Z,43.03
2018-11-29T14:20:18.300Z,41.77
2018-11-29T14:22:46.525Z,40.53
2018-11-29T14:25:15.732Z,41.23
2018-11-29T14:27:46.164Z,40.40
2018-11-29T14:30:16.594Z,37.53
2018-11-29T14:32:44.688Z,45.77
2018-11-29T14:35:12.915Z,43.53
2018-11-29T14:37:41.229Z,42.87
2018-11-29T14:40:13.596Z,41.67
2018-11-29T14:42:41.893Z,46.30
2018-11-29T14:45:11.298Z,45.70
2018-11-29T14:47:39.558Z,38.27
2018-11-29T14:50:12.253Z,48.10
2018-11-29T14:52:41.152Z,40.27
2018-11-29T14:55:10.412Z,37.67
2018-11-29T14:57:38.827Z,40.17
2018-11-29T15:00:09.183Z,38.47
2018-11-29T15:02:37.496Z,37.17
2018-11-29T15:05:09.401Z,40.37
2018-11-29T15:07:44.624Z,39.40
2018-11-29T15:10:12.919Z,42.70
2018-11-29T15:12:41.232Z,37.33
2018-11-29T15:15:11.327Z,44.73
2018-11-29T15:17:40.416Z,41.27
2018-11-29T15:20:10.625Z,40.20
2018-11-29T15:22:38.889Z,38.63
2018-11-29T15:25:08.034Z,41.83
2018-11-29T15:27:36.370Z,36.70
2018-11-29T15:30:10.237Z,35.10
2018-11-29T15:32:39.229Z,41.90
2018-11-29T15:35:07.975Z,35.07
2018-11-29T15:37:36.687Z,35.53
2018-11-29T15:40:07.482Z,36.27
2018-11-29T15:42:35.723Z,37.93
2018-11-29T15:45:04.491Z,32.90
2018-11-29T15:47:32.661Z,38.90
2018-11-29T15:50:00.852Z,41.03
2018-11-29T15:52:29.119Z,31.30
2018-11-29T15:54:57.333Z,41.20
2018-11-29T15:57:25.514Z,34.27
2018-11-29T15:59:53.703Z,38.00
2018-11-29T16:02:21.892Z,40.57
2018-11-29T16:04:50.112Z,36.00
2018-11-29T16:07:18.806Z,32.67
2018-11-29T16:09:46.945Z,34.77
2018-11-29T16:12:15.127Z,40.43
2018-11-29T16:14:43.697Z,37.57
2018-11-29T16:17:11.896Z,30.80
2018-11-29T16:19:40.101Z,37.10
2018-11-29T16:22:08.305Z,35.87
2018-11-29T16:24:37.426Z,36.87
2018-11-29T16:27:05.934Z,42.37
2018-11-29T16:29:34.143Z,35.60
2018-11-29T16:32:02.403Z,43.50
2018-11-29T16:34:30.710Z,35.57
2018-11-29T16:36:58.961Z,34.33
2018-11-29T16:39:27.187Z,36.80
2018-11-29T16:41:55.777Z,36.80
2018-11-29T16:44:24.861Z,32.43
2018-11-29T16:46:53.105Z,35.00
2018-11-29T16:49:21.703Z,49.13
2018-11-29T16:51:49.891Z,36.80
2018-11-29T16:54:18.269Z,41.50
2018-11-29T16:56:46.539Z,42.73
2018-11-29T16:59:14.952Z,48.70
2018-11-29T17:01:43.256Z,41.70
2018-11-29T17:04:11.552Z,37.20
2018-11-29T17:06:39.844Z,43.37
2018-11-29T17:09:09.122Z,43.33
2018-11-29T17:11:37.409Z,34.47
2018-11-29T17:14:06.369Z,34.00
2018-11-29T17:16:35.046Z,39.87
2018-11-29T17:19:03.500Z,34.87
2018-11-29T17:21:31.940Z,36.83
2018-11-29T17:24:00.113Z,37.67
2018-11-29T17:26:28.358Z,35.80
2018-11-29T17:28:58.797Z,35.57
2018-11-29T17:31:27.829Z,33.80
2018-11-29T17:33:56.136Z,31.10
2018-11-29T17:36:24.387Z,36.40
2018-11-29T17:38:52.626Z,36.87
2018-11-29T17:41:20.839Z,38.03
2018-11-29T17:43:49.735Z,36.90
2018-11-29T17:46:18.016Z,41.10
2018-11-29T17:48:46.315Z,45.97
2018-11-29T17:51:14.648Z,39.30
2018-11-29T17:53:43.081Z,41.53
2018-11-29T17:56:11.314Z,38.23
2018-11-29T17:58:39.608Z,41.43
2018-11-29T18:01:07.780Z,41.70
2018-11-29T18:03:36.020Z,38.73
2018-11-29T18:06:04.798Z,40.50
2018-11-29T18:08:33.086Z,44.33
2018-11-29T18:11:01.325Z,38.17
2018-11-29T18:13:32.089Z,41.13
2018-11-29T18:16:00.890Z,41.50
2018-11-29T18:18:29.230Z,41.70
2018-11-29T18:20:57.456Z,41.60
2018-11-29T18:23:25.636Z,43.53
2018-11-29T18:25:54.381Z,37.47
2018-11-29T18:28:22.632Z,38.87
2018-11-29T18:30:50.911Z,46.77
2018-11-29T18:33:19.093Z,43.60
2018-11-29T18:35:47.324Z,41.07
2018-11-29T18:38:15.591Z,49.93
2018-11-29T18:40:43.881Z,39.93
2018-11-29T18:43:12.130Z,37.37
2018-11-29T18:45:40.406Z,35.00
2018-11-29T18:48:09.374Z,44.70
2018-11-29T18:50:37.819Z,35.07
2018-11-29T18:53:06.563Z,37.80
2018-11-29T18:55:34.870Z,44.10
2018-11-29T18:58:03.234Z,35.50
2018-11-29T19:00:33.112Z,47.27
2018-11-29T19:03:01.459Z,49.50
2018-11-29T19:05:29.765Z,53.23
2018-11-29T19:07:58.027Z,45.03
2018-11-29T19:10:26.278Z,41.67
2018-11-29T19:12:56.883Z,35.10
2018-11-29T19:15:25.104Z,41.50
2018-11-29T19:17:53.927Z,39.23
2018-11-29T19:20:22.160Z,40.10
2018-11-29T19:22:50.543Z,40.20
2018-11-29T19:25:19.637Z,39.37
2018-11-29T19:27:47.923Z,41.07
2018-11-29T19:30:18.765Z,36.80
2018-11-29T19:32:48.642Z,36.70
2018-11-29T19:35:16.989Z,38.20
2018-11-29T19:37:45.615Z,43.63
2018-11-29T19:40:15.021Z,36.73
2018-11-29T19:42:43.387Z,35.30
2018-11-29T19:45:12.957Z,37.30
2018-11-29T19:47:41.279Z,44.70
2018-11-29T19:50:17.386Z,42.50
2018-11-29T19:52:46.879Z,40.20
2018-11-29T19:55:17.965Z,34.37
2018-11-29T19:57:46.304Z,38.10
2018-11-29T20:00:14.710Z,37.03
2018-11-29T20:02:44.088Z,39.77
2018-11-29T20:05:12.926Z,37.30
2018-11-29T20:07:41.278Z,40.00
2018-11-29T20:10:10.997Z,32.53
2018-11-29T20:12:39.212Z,55.23
2018-11-29T20:15:12.983Z,56.10
2018-11-29T20:17:41.343Z,53.57
2018-11-29T20:20:10.838Z,45.63
2018-11-29T20:22:39.388Z,40.13
2018-11-29T20:25:11.117Z,36.10
2018-11-29T20:27:39.408Z,34.17
2018-11-29T20:30:11.203Z,37.60
2018-11-29T20:32:39.514Z,38.23
2018-11-29T20:35:08.327Z,39.57
2018-11-29T20:37:36.765Z,33.50
2018-11-29T20:40:09.813Z,40.57
2018-11-29T20:42:38.136Z,37.07
2018-11-29T20:45:10.292Z,40.83
2018-11-29T20:47:38.730Z,44.60
2018-11-29T20:50:14.609Z,39.77
2018-11-29T20:52:37.930Z,47.90
2018-11-29T20:55:09.265Z,44.47
2018-11-29T20:57:37.501Z,38.63
2018-11-29T21:00:08.843Z,42.37
2018-11-29T21:02:37.225Z,44.50
2018-11-29T21:05:07.013Z,39.77
2018-11-29T21:07:35.308Z,39.80
2018-11-29T21:10:03.930Z,38.60
2018-11-29T21:12:33.038Z,41.77
2018-11-29T21:15:00.595Z,33.60
2018-11-29T21:17:29.117Z,42.90
2018-11-29T21:19:57.492Z,39.27
2018-11-29T21:22:26.388Z,35.23
2018-11-29T21:24:54.748Z,36.67
2018-11-29T21:27:23.012Z,41.80
2018-11-29T21:29:51.338Z,34.80
2018-11-29T21:32:21.067Z,33.73
2018-11-29T21:34:49.634Z,40.27
2018-11-29T21:37:17.881Z,40.47
2018-11-29T21:39:47.336Z,33.63
2018-11-29T21:42:15.529Z,36.83
2018-11-29T21:44:43.724Z,38.00
2018-11-29T21:47:12.053Z,38.20
2018-11-29T21:49:41.365Z,31.87
2018-11-29T21:52:09.627Z,35.27
2018-11-29T21:54:37.884Z,36.73
2018-11-29T21:57:06.210Z,37.03
2018-11-29T21:59:35.555Z,37.70
2018-11-29T22:02:02.864Z,33.40
2018-11-29T22:04:31.176Z,41.50
2018-11-29T22:06:59.559Z,40.37
2018-11-29T22:09:27.826Z,36.30
2018-11-29T22:11:56.058Z,33.57
2018-11-29T22:14:24.321Z,33.70
2018-11-29T22:16:52.642Z,34.93
2018-11-29T22:19:20.937Z,37.13
2018-11-29T22:21:49.207Z,35.10
2018-11-29T22:24:17.457Z,33.87
2018-11-29T22:26:45.731Z,37.57
2018-11-29T22:29:14.542Z,37.73
2018-11-29T22:31:42.810Z,39.00
2018-11-29T22:34:11.061Z,38.83
2018-11-29T22:36:39.243Z,37.30
2018-11-29T22:39:09.143Z,36.70
2018-11-29T22:41:37.380Z,39.70
2018-11-29T22:44:06.036Z,36.53
2018-11-29T22:46:34.538Z,34.97
2018-11-29T22:49:02.942Z,39.20
2018-11-29T22:51:31.220Z,36.67
2018-11-29T22:53:59.468Z,32.93
2018-11-29T22:56:27.891Z,42.27
2018-11-29T22:59:03.511Z,40.03
2018-11-29T23:01:31.832Z,37.80
2018-11-29T23:04:00.242Z,35.70
2018-11-29T23:06:28.529Z,36.33
2018-11-29T23:08:56.985Z,36.70
2018-11-29T23:11:25.379Z,32.80
2018-11-29T23:13:53.795Z,31.70
2018-11-29T23:16:22.039Z,31.33
2018-11-29T23:18:50.304Z,33.53
2018-11-29T23:21:18.533Z,33.33
2018-11-29T23:23:46.781Z,34.63
2018-11-29T23:26:15.105Z,39.47
2018-11-29T23:28:43.353Z,46.20
2018-11-29T23:31:11.851Z,42.30
2018-11-29T23:33:40.146Z,42.87
2018-11-29T23:36:08.576Z,37.40
2018-11-29T23:38:36.783Z,35.87
2018-11-29T23:41:05.347Z,36.17
2018-11-29T23:43:33.610Z,37.87
2018-11-29T23:46:01.869Z,29.60
2018-11-29T23:48:30.200Z,28.33
2018-11-29T23:50:58.420Z,33.60
2018-11-29T23:53:26.687Z,34.03
2018-11-29T23:55:55.031Z,34.23
2018-11-29T23:58:23.258Z,39.10
